sensor_id;sensor_type;location;lat;lon;timestamp;pressure;altitude;pressure_sealevel;temperature;humidity
70971;BME280;58632;51.718;19.446;2023-07-16T00:01:09;99274.61;;;20.67;100.00
70971;BME280;58632;51.718;19.446;2023-07-16T00:03:54;99271.61;;;20.64;100.00
70971;BME280;58632;51.718;19.446;2023-07-16T00:06:22;99275.19;;;20.62;100.00
70971;BME280;58632;51.718;19.446;2023-07-16T00:08:50;99268.60;;;20.59;100.00
70971;BME280;58632;51.718;19.446;2023-07-16T00:11:16;99265.59;;;20.59;100.00
70971;BME280;58632;51.718;19.446;2023-07-16T00:13:41;99266.77;;;20.60;100.00
70971;BME280;58632;51.718;19.446;2023-07-16T00:16:12;99260.98;;;20.59;100.00
70971;BME280;58632;51.718;19.446;2023-07-16T00:18:38;99261.05;;;20.57;100.00
70971;BME280;58632;51.718;19.446;2023-07-16T00:21:03;99259.23;;;20.60;100.00
70971;BME280;58632;51.718;19.446;2023-07-16T00:23:29;99257.96;;;20.59;100.00
70971;BME280;58632;51.718;19.446;2023-07-16T00:25:55;99252.23;;;20.57;100.00
70971;BME280;58632;51.718;19.446;2023-07-16T00:28:20;99252.08;;;20.55;100.00
70971;BME280;58632;51.718;19.446;2023-07-16T00:30:46;99247.23;;;20.53;100.00
70971;BME280;58632;51.718;19.446;2023-07-16T00:33:11;99252.94;;;20.51;100.00
70971;BME280;58632;51.718;19.446;2023-07-16T00:35:37;99254.54;;;20.53;100.00
70971;BME280;58632;51.718;19.446;2023-07-16T00:38:02;99255.25;;;20.53;100.00
70971;BME280;58632;51.718;19.446;2023-07-16T00:40:28;99254.29;;;20.52;100.00
70971;BME280;58632;51.718;19.446;2023-07-16T00:42:53;99252.08;;;20.48;100.00
70971;BME280;58632;51.718;19.446;2023-07-16T00:45:19;99246.21;;;20.43;100.00
70971;BME280;58632;51.718;19.446;2023-07-16T00:47:45;99247.09;;;20.39;100.00
70971;BME280;58632;51.718;19.446;2023-07-16T00:50:11;99245.45;;;20.35;100.00
70971;BME280;58632;51.718;19.446;2023-07-16T00:52:37;99243.94;;;20.32;100.00
70971;BME280;58632;51.718;19.446;2023-07-16T00:55:03;99238.31;;;20.29;100.00
70971;BME280;58632;51.718;19.446;2023-07-16T00:57:29;99235.92;;;20.25;100.00
70971;BME280;58632;51.718;19.446;2023-07-16T00:59:56;99237.37;;;20.20;100.00
70971;BME280;58632;51.718;19.446;2023-07-16T01:02:21;99232.77;;;20.15;100.00
70971;BME280;58632;51.718;19.446;2023-07-16T01:04:47;99230.09;;;20.14;100.00
70971;BME280;58632;51.718;19.446;2023-07-16T01:07:14;99226.77;;;20.10;100.00
70971;BME280;58632;51.718;19.446;2023-07-16T01:09:41;99224.38;;;20.07;100.00
70971;BME280;58632;51.718;19.446;2023-07-16T01:12:09;99220.64;;;20.08;100.00
70971;BME280;58632;51.718;19.446;2023-07-16T01:14:35;99218.02;;;20.08;100.00
70971;BME280;58632;51.718;19.446;2023-07-16T01:17:05;99215.64;;;20.08;100.00
70971;BME280;58632;51.718;19.446;2023-07-16T01:19:34;99216.27;;;20.07;100.00
70971;BME280;58632;51.718;19.446;2023-07-16T01:27:55;99211.77;;;20.06;100.00
70971;BME280;58632;51.718;19.446;2023-07-16T01:30:26;99211.99;;;20.05;100.00
70971;BME280;58632;51.718;19.446;2023-07-16T01:32:53;99208.11;;;20.02;100.00
70971;BME280;58632;51.718;19.446;2023-07-16T01:35:19;99207.15;;;19.99;100.00
70971;BME280;58632;51.718;19.446;2023-07-16T01:37:45;99204.94;;;19.97;100.00
70971;BME280;58632;51.718;19.446;2023-07-16T01:40:11;99206.69;;;19.97;100.00
70971;BME280;58632;51.718;19.446;2023-07-16T01:42:37;99208.12;;;19.98;100.00
70971;BME280;58632;51.718;19.446;2023-07-16T01:45:05;99208.36;;;19.99;100.00
70971;BME280;58632;51.718;19.446;2023-07-16T01:47:55;99210.98;;;19.98;100.00
70971;BME280;58632;51.718;19.446;2023-07-16T01:50:25;99212.96;;;19.93;100.00
70971;BME280;58632;51.718;19.446;2023-07-16T01:52:50;99215.28;;;19.88;100.00
70971;BME280;58632;51.718;19.446;2023-07-16T01:55:16;99210.66;;;19.87;100.00
70971;BME280;58632;51.718;19.446;2023-07-16T01:57:41;99209.16;;;19.87;100.00
70971;BME280;58632;51.718;19.446;2023-07-16T02:00:07;99211.47;;;19.90;100.00
70971;BME280;58632;51.718;19.446;2023-07-16T02:02:33;99212.58;;;19.88;100.00
70971;BME280;58632;51.718;19.446;2023-07-16T02:04:59;99209.16;;;19.83;100.00
70971;BME280;58632;51.718;19.446;2023-07-16T02:07:27;99210.52;;;19.83;100.00
70971;BME280;58632;51.718;19.446;2023-07-16T02:09:53;99210.36;;;19.82;100.00
70971;BME280;58632;51.718;19.446;2023-07-16T02:12:19;99211.00;;;19.78;100.00
70971;BME280;58632;51.718;19.446;2023-07-16T02:14:45;99211.55;;;19.80;100.00
70971;BME280;58632;51.718;19.446;2023-07-16T02:17:10;99204.73;;;19.78;100.00
70971;BME280;58632;51.718;19.446;2023-07-16T02:19:38;99205.74;;;19.81;100.00
70971;BME280;58632;51.718;19.446;2023-07-16T02:22:04;99206.08;;;19.80;100.00
70971;BME280;58632;51.718;19.446;2023-07-16T02:24:30;99208.22;;;19.78;100.00
70971;BME280;58632;51.718;19.446;2023-07-16T02:26:58;99211.56;;;19.71;100.00
70971;BME280;58632;51.718;19.446;2023-07-16T02:29:23;99206.15;;;19.68;100.00
70971;BME280;58632;51.718;19.446;2023-07-16T02:31:49;99205.17;;;19.66;100.00
70971;BME280;58632;51.718;19.446;2023-07-16T02:34:14;99205.98;;;19.69;100.00
70971;BME280;58632;51.718;19.446;2023-07-16T02:36:40;99205.91;;;19.67;100.00
70971;BME280;58632;51.718;19.446;2023-07-16T02:39:06;99201.61;;;19.63;100.00
70971;BME280;58632;51.718;19.446;2023-07-16T02:41:31;99204.86;;;19.59;100.00
70971;BME280;58632;51.718;19.446;2023-07-16T02:44:04;99206.14;;;19.53;100.00
70971;BME280;58632;51.718;19.446;2023-07-16T02:46:29;99206.13;;;19.47;100.00
70971;BME280;58632;51.718;19.446;2023-07-16T02:48:55;99205.73;;;19.44;100.00
70971;BME280;58632;51.718;19.446;2023-07-16T02:51:21;99204.79;;;19.45;100.00
70971;BME280;58632;51.718;19.446;2023-07-16T02:53:46;99204.86;;;19.47;100.00
70971;BME280;58632;51.718;19.446;2023-07-16T02:56:12;99205.19;;;19.46;100.00
70971;BME280;58632;51.718;19.446;2023-07-16T02:58:42;99214.07;;;19.47;100.00
70971;BME280;58632;51.718;19.446;2023-07-16T03:01:07;99210.81;;;19.47;100.00
70971;BME280;58632;51.718;19.446;2023-07-16T03:03:33;99220.25;;;19.46;100.00
70971;BME280;58632;51.718;19.446;2023-07-16T03:05:58;99220.42;;;19.52;100.00
70971;BME280;58632;51.718;19.446;2023-07-16T03:08:24;99221.06;;;19.59;100.00
70971;BME280;58632;51.718;19.446;2023-07-16T03:10:55;99217.72;;;19.64;100.00
70971;BME280;58632;51.718;19.446;2023-07-16T03:13:21;99216.48;;;19.68;100.00
70971;BME280;58632;51.718;19.446;2023-07-16T03:15:47;99218.30;;;19.74;100.00
70971;BME280;58632;51.718;19.446;2023-07-16T03:18:12;99218.30;;;19.80;100.00
70971;BME280;58632;51.718;19.446;2023-07-16T03:20:38;99219.88;;;19.84;100.00
70971;BME280;58632;51.718;19.446;2023-07-16T03:23:04;99223.29;;;19.91;100.00
70971;BME280;58632;51.718;19.446;2023-07-16T03:25:30;99230.02;;;19.92;100.00
70971;BME280;58632;51.718;19.446;2023-07-16T03:27:55;99228.77;;;19.92;100.00
70971;BME280;58632;51.718;19.446;2023-07-16T03:30:21;99230.73;;;19.95;100.00
70971;BME280;58632;51.718;19.446;2023-07-16T03:32:46;99228.45;;;19.99;100.00
70971;BME280;58632;51.718;19.446;2023-07-16T03:35:12;99228.77;;;19.99;100.00
70971;BME280;58632;51.718;19.446;2023-07-16T03:37:38;99228.66;;;20.03;100.00
70971;BME280;58632;51.718;19.446;2023-07-16T03:40:17;99226.44;;;20.10;100.00
70971;BME280;58632;51.718;19.446;2023-07-16T03:42:43;99224.77;;;20.14;100.00
70971;BME280;58632;51.718;19.446;2023-07-16T03:45:10;99224.91;;;20.14;100.00
70971;BME280;58632;51.718;19.446;2023-07-16T03:47:36;99223.90;;;20.14;100.00
70971;BME280;58632;51.718;19.446;2023-07-16T03:50:02;99222.04;;;20.21;100.00
70971;BME280;58632;51.718;19.446;2023-07-16T03:52:28;99221.95;;;20.27;100.00
70971;BME280;58632;51.718;19.446;2023-07-16T03:54:54;99226.86;;;20.36;100.00
70971;BME280;58632;51.718;19.446;2023-07-16T03:57:20;99228.73;;;20.42;100.00
70971;BME280;58632;51.718;19.446;2023-07-16T03:59:46;99233.18;;;20.46;100.00
70971;BME280;58632;51.718;19.446;2023-07-16T04:02:11;99231.17;;;20.51;100.00
70971;BME280;58632;51.718;19.446;2023-07-16T04:04:37;99234.75;;;20.58;100.00
70971;BME280;58632;51.718;19.446;2023-07-16T04:07:03;99231.39;;;20.67;100.00
70971;BME280;58632;51.718;19.446;2023-07-16T04:09:29;99231.02;;;20.80;100.00
70971;BME280;58632;51.718;19.446;2023-07-16T04:11:54;99229.54;;;20.89;100.00
70971;BME280;58632;51.718;19.446;2023-07-16T04:14:20;99226.00;;;20.98;100.00
70971;BME280;58632;51.718;19.446;2023-07-16T04:16:45;99224.02;;;21.07;100.00
70971;BME280;58632;51.718;19.446;2023-07-16T04:19:11;99221.83;;;21.16;100.00
70971;BME280;58632;51.718;19.446;2023-07-16T04:21:37;99220.34;;;21.26;100.00
70971;BME280;58632;51.718;19.446;2023-07-16T04:24:03;99219.85;;;21.40;100.00
70971;BME280;58632;51.718;19.446;2023-07-16T04:26:28;99215.70;;;21.54;100.00
70971;BME280;58632;51.718;19.446;2023-07-16T04:28:54;99220.13;;;22.48;100.00
70971;BME280;58632;51.718;19.446;2023-07-16T04:31:20;99214.70;;;24.33;100.00
70971;BME280;58632;51.718;19.446;2023-07-16T04:33:45;99216.95;;;25.73;100.00
70971;BME280;58632;51.718;19.446;2023-07-16T04:36:11;99221.13;;;27.13;100.00
70971;BME280;58632;51.718;19.446;2023-07-16T04:38:36;99220.27;;;28.35;99.98
70971;BME280;58632;51.718;19.446;2023-07-16T04:41:04;99220.56;;;29.38;96.74
70971;BME280;58632;51.718;19.446;2023-07-16T04:43:30;99224.69;;;30.37;87.42
70971;BME280;58632;51.718;19.446;2023-07-16T04:45:55;99229.15;;;31.25;77.57
70971;BME280;58632;51.718;19.446;2023-07-16T04:48:21;99231.44;;;31.95;73.04
70971;BME280;58632;51.718;19.446;2023-07-16T04:50:46;99227.02;;;32.88;68.08
70971;BME280;58632;51.718;19.446;2023-07-16T04:53:12;99230.05;;;33.64;58.53
70971;BME280;58632;51.718;19.446;2023-07-16T04:55:38;99235.86;;;34.29;55.01
70971;BME280;58632;51.718;19.446;2023-07-16T04:58:05;99231.44;;;34.82;48.97
70971;BME280;58632;51.718;19.446;2023-07-16T05:00:34;99239.58;;;35.24;45.47
70971;BME280;58632;51.718;19.446;2023-07-16T05:03:00;99239.58;;;35.53;42.58
70971;BME280;58632;51.718;19.446;2023-07-16T05:05:26;99238.24;;;35.71;39.43
70971;BME280;58632;51.718;19.446;2023-07-16T05:07:51;99237.48;;;35.82;38.40
70971;BME280;58632;51.718;19.446;2023-07-16T05:10:16;99240.27;;;36.03;38.23
70971;BME280;58632;51.718;19.446;2023-07-16T05:12:42;99245.27;;;36.29;38.41
70971;BME280;58632;51.718;19.446;2023-07-16T05:15:08;99243.45;;;36.64;36.91
70971;BME280;58632;51.718;19.446;2023-07-16T05:17:34;99248.38;;;36.94;37.21
70971;BME280;58632;51.718;19.446;2023-07-16T05:20:00;99242.68;;;37.38;37.14
70971;BME280;58632;51.718;19.446;2023-07-16T05:22:26;99251.21;;;38.05;37.06
70971;BME280;58632;51.718;19.446;2023-07-16T05:24:51;99256.27;;;38.84;36.18
70971;BME280;58632;51.718;19.446;2023-07-16T05:27:17;99261.96;;;39.50;34.93
70971;BME280;58632;51.718;19.446;2023-07-16T05:29:43;99267.45;;;39.85;33.32
70971;BME280;58632;51.718;19.446;2023-07-16T05:32:09;99274.30;;;40.37;33.24
70971;BME280;58632;51.718;19.446;2023-07-16T05:34:35;99282.11;;;40.65;31.01
70971;BME280;58632;51.718;19.446;2023-07-16T05:37:00;99289.55;;;40.66;31.17
70971;BME280;58632;51.718;19.446;2023-07-16T05:39:26;99291.73;;;40.82;31.16
70971;BME280;58632;51.718;19.446;2023-07-16T05:41:51;99297.30;;;41.08;30.65
70971;BME280;58632;51.718;19.446;2023-07-16T05:44:17;99304.48;;;41.66;29.48
70971;BME280;58632;51.718;19.446;2023-07-16T05:46:42;99302.03;;;42.05;29.55
70971;BME280;58632;51.718;19.446;2023-07-16T05:49:08;99308.13;;;42.32;29.08
70971;BME280;58632;51.718;19.446;2023-07-16T05:51:33;99317.88;;;41.90;28.48
70971;BME280;58632;51.718;19.446;2023-07-16T05:53:59;99318.60;;;40.27;29.55
70971;BME280;58632;51.718;19.446;2023-07-16T05:56:24;99310.09;;;38.75;29.92
70971;BME280;58632;51.718;19.446;2023-07-16T05:58:50;99304.00;;;37.07;31.64
70971;BME280;58632;51.718;19.446;2023-07-16T06:01:15;99303.16;;;36.73;33.02
70971;BME280;58632;51.718;19.446;2023-07-16T06:03:41;99306.21;;;36.95;33.65
70971;BME280;58632;51.718;19.446;2023-07-16T06:06:08;99305.85;;;37.25;34.02
70971;BME280;58632;51.718;19.446;2023-07-16T06:08:34;99307.14;;;37.61;33.67
70971;BME280;58632;51.718;19.446;2023-07-16T06:11:00;99308.23;;;38.18;33.68
70971;BME280;58632;51.718;19.446;2023-07-16T06:13:29;99306.11;;;38.65;32.87
70971;BME280;58632;51.718;19.446;2023-07-16T06:15:57;99309.05;;;38.91;32.51
70971;BME280;58632;51.718;19.446;2023-07-16T06:18:23;99315.73;;;39.19;32.53
70971;BME280;58632;51.718;19.446;2023-07-16T06:20:48;99309.52;;;39.41;31.58
70971;BME280;58632;51.718;19.446;2023-07-16T06:23:15;99298.61;;;39.46;31.30
70971;BME280;58632;51.718;19.446;2023-07-16T06:25:42;99299.93;;;39.22;30.53
70971;BME280;58632;51.718;19.446;2023-07-16T06:28:12;99301.27;;;38.88;31.34
70971;BME280;58632;51.718;19.446;2023-07-16T06:30:37;99304.63;;;38.90;31.99
70971;BME280;58632;51.718;19.446;2023-07-16T06:33:03;99303.70;;;39.07;32.10
70971;BME280;58632;51.718;19.446;2023-07-16T06:35:28;99307.27;;;39.04;31.81
70971;BME280;58632;51.718;19.446;2023-07-16T06:37:54;99307.32;;;38.95;31.92
70971;BME280;58632;51.718;19.446;2023-07-16T06:40:19;99309.96;;;38.76;32.55
70971;BME280;58632;51.718;19.446;2023-07-16T06:42:45;99306.04;;;38.54;32.43
70971;BME280;58632;51.718;19.446;2023-07-16T06:45:11;99306.64;;;38.30;33.04
70971;BME280;58632;51.718;19.446;2023-07-16T06:47:36;99296.98;;;38.25;33.66
70971;BME280;58632;51.718;19.446;2023-07-16T06:50:02;99301.77;;;38.28;33.87
70971;BME280;58632;51.718;19.446;2023-07-16T06:52:28;99296.48;;;38.19;33.49
70971;BME280;58632;51.718;19.446;2023-07-16T06:54:56;99311.70;;;37.80;33.97
70971;BME280;58632;51.718;19.446;2023-07-16T06:57:22;99308.56;;;37.53;34.74
70971;BME280;58632;51.718;19.446;2023-07-16T06:59:48;99310.89;;;37.46;35.41
70971;BME280;58632;51.718;19.446;2023-07-16T07:02:16;99310.90;;;37.63;35.41
70971;BME280;58632;51.718;19.446;2023-07-16T07:04:42;99320.55;;;37.56;35.59
70971;BME280;58632;51.718;19.446;2023-07-16T07:07:07;99320.86;;;37.43;35.17
70971;BME280;58632;51.718;19.446;2023-07-16T07:09:33;99321.48;;;37.36;35.77
70971;BME280;58632;51.718;19.446;2023-07-16T07:11:59;99328.28;;;37.30;35.30
70971;BME280;58632;51.718;19.446;2023-07-16T07:14:24;99335.02;;;37.28;35.67
70971;BME280;58632;51.718;19.446;2023-07-16T07:16:50;99327.65;;;37.46;35.90
70971;BME280;58632;51.718;19.446;2023-07-16T07:19:18;99334.15;;;37.42;35.65
70971;BME280;58632;51.718;19.446;2023-07-16T07:21:46;99336.64;;;37.38;36.54
70971;BME280;58632;51.718;19.446;2023-07-16T07:24:12;99337.05;;;37.29;37.01
70971;BME280;58632;51.718;19.446;2023-07-16T07:26:38;99334.96;;;37.24;36.32
70971;BME280;58632;51.718;19.446;2023-07-16T07:29:04;99330.71;;;37.24;36.43
70971;BME280;58632;51.718;19.446;2023-07-16T07:31:30;99329.32;;;37.29;36.19
70971;BME280;58632;51.718;19.446;2023-07-16T07:33:55;99329.46;;;37.28;36.44
70971;BME280;58632;51.718;19.446;2023-07-16T07:36:23;99332.05;;;37.23;36.81
70971;BME280;58632;51.718;19.446;2023-07-16T07:38:48;99334.29;;;37.21;36.53
70971;BME280;58632;51.718;19.446;2023-07-16T07:41:14;99336.98;;;37.27;36.35
70971;BME280;58632;51.718;19.446;2023-07-16T07:43:39;99342.02;;;37.28;36.07
70971;BME280;58632;51.718;19.446;2023-07-16T07:46:05;99338.15;;;37.43;37.07
70971;BME280;58632;51.718;19.446;2023-07-16T07:48:31;99331.87;;;37.53;36.07
70971;BME280;58632;51.718;19.446;2023-07-16T07:50:57;99336.33;;;37.49;35.75
70971;BME280;58632;51.718;19.446;2023-07-16T07:53:22;99341.52;;;37.44;36.05
70971;BME280;58632;51.718;19.446;2023-07-16T07:55:48;99342.86;;;37.43;37.06
70971;BME280;58632;51.718;19.446;2023-07-16T07:58:14;99344.27;;;37.47;37.24
70971;BME280;58632;51.718;19.446;2023-07-16T08:00:39;99344.39;;;37.65;36.79
70971;BME280;58632;51.718;19.446;2023-07-16T08:03:05;99340.95;;;37.71;35.86
70971;BME280;58632;51.718;19.446;2023-07-16T08:05:31;99341.54;;;37.63;35.45
70971;BME280;58632;51.718;19.446;2023-07-16T08:07:58;99342.25;;;37.59;35.44
70971;BME280;58632;51.718;19.446;2023-07-16T08:10:24;99343.17;;;37.38;34.95
70971;BME280;58632;51.718;19.446;2023-07-16T08:12:50;99350.32;;;37.21;35.78
70971;BME280;58632;51.718;19.446;2023-07-16T08:15:17;99349.91;;;37.18;35.15
70971;BME280;58632;51.718;19.446;2023-07-16T08:17:44;99353.19;;;37.19;35.03
70971;BME280;58632;51.718;19.446;2023-07-16T08:20:10;99351.48;;;37.06;34.36
70971;BME280;58632;51.718;19.446;2023-07-16T08:22:36;99353.27;;;36.99;34.85
70971;BME280;58632;51.718;19.446;2023-07-16T08:25:05;99353.64;;;37.04;34.20
70971;BME280;58632;51.718;19.446;2023-07-16T08:27:31;99353.15;;;36.91;33.49
70971;BME280;58632;51.718;19.446;2023-07-16T08:29:57;99350.34;;;36.87;33.34
70971;BME280;58632;51.718;19.446;2023-07-16T08:32:25;99358.11;;;36.88;32.49
70971;BME280;58632;51.718;19.446;2023-07-16T08:34:51;99362.88;;;36.68;31.46
70971;BME280;58632;51.718;19.446;2023-07-16T08:37:16;99366.04;;;36.34;31.37
70971;BME280;58632;51.718;19.446;2023-07-16T08:39:42;99367.89;;;36.01;32.03
70971;BME280;58632;51.718;19.446;2023-07-16T08:42:09;99366.71;;;35.86;32.78
70971;BME280;58632;51.718;19.446;2023-07-16T08:44:35;99377.27;;;35.92;33.70
70971;BME280;58632;51.718;19.446;2023-07-16T08:47:01;99374.83;;;36.00;32.77
70971;BME280;58632;51.718;19.446;2023-07-16T08:49:27;99382.04;;;36.07;33.15
70971;BME280;58632;51.718;19.446;2023-07-16T08:51:55;99379.67;;;36.04;32.81
70971;BME280;58632;51.718;19.446;2023-07-16T08:54:22;99381.16;;;36.14;33.70
70971;BME280;58632;51.718;19.446;2023-07-16T08:56:48;99377.84;;;36.21;33.33
70971;BME280;58632;51.718;19.446;2023-07-16T08:59:14;99379.30;;;36.16;33.11
70971;BME280;58632;51.718;19.446;2023-07-16T09:01:40;99373.88;;;36.17;32.99
70971;BME280;58632;51.718;19.446;2023-07-16T09:04:06;99377.82;;;36.28;33.35
70971;BME280;58632;51.718;19.446;2023-07-16T09:06:34;99382.63;;;36.39;33.32
70971;BME280;58632;51.718;19.446;2023-07-16T09:09:00;99378.21;;;36.55;34.29
70971;BME280;58632;51.718;19.446;2023-07-16T09:11:25;99384.23;;;36.63;33.12
70971;BME280;58632;51.718;19.446;2023-07-16T09:13:51;99383.83;;;36.48;32.06
70971;BME280;58632;51.718;19.446;2023-07-16T09:16:20;99383.09;;;36.35;32.30
70971;BME280;58632;51.718;19.446;2023-07-16T09:18:46;99385.66;;;36.21;32.82
70971;BME280;58632;51.718;19.446;2023-07-16T09:21:12;99384.28;;;36.17;33.20
70971;BME280;58632;51.718;19.446;2023-07-16T09:23:38;99387.68;;;36.24;34.02
70971;BME280;58632;51.718;19.446;2023-07-16T09:26:04;99386.55;;;36.44;33.80
70971;BME280;58632;51.718;19.446;2023-07-16T09:28:34;99386.30;;;36.48;33.09
70971;BME280;58632;51.718;19.446;2023-07-16T09:31:06;99388.80;;;36.36;31.85
70971;BME280;58632;51.718;19.446;2023-07-16T09:33:33;99392.86;;;36.23;32.51
70971;BME280;58632;51.718;19.446;2023-07-16T09:35:59;99389.22;;;36.00;31.63
70971;BME280;58632;51.718;19.446;2023-07-16T09:38:44;99387.59;;;35.81;32.72
70971;BME280;58632;51.718;19.446;2023-07-16T09:41:10;99377.79;;;35.87;32.62
70971;BME280;58632;51.718;19.446;2023-07-16T09:43:36;99381.84;;;35.75;31.03
70971;BME280;58632;51.718;19.446;2023-07-16T09:46:03;99386.34;;;35.53;31.60
70971;BME280;58632;51.718;19.446;2023-07-16T09:48:29;99390.20;;;35.31;31.13
70971;BME280;58632;51.718;19.446;2023-07-16T09:50:55;99377.55;;;35.11;31.66
70971;BME280;58632;51.718;19.446;2023-07-16T09:53:21;99377.70;;;35.02;31.95
70971;BME280;58632;51.718;19.446;2023-07-16T09:55:47;99378.20;;;34.95;32.21
70971;BME280;58632;51.718;19.446;2023-07-16T09:58:14;99380.92;;;34.83;32.10
70971;BME280;58632;51.718;19.446;2023-07-16T10:00:42;99395.91;;;34.74;31.36
70971;BME280;58632;51.718;19.446;2023-07-16T10:03:08;99392.13;;;34.65;30.93
70971;BME280;58632;51.718;19.446;2023-07-16T10:05:38;99386.39;;;34.58;32.41
70971;BME280;58632;51.718;19.446;2023-07-16T10:08:04;99385.98;;;34.66;33.36
70971;BME280;58632;51.718;19.446;2023-07-16T10:10:40;99386.66;;;34.74;32.72
70971;BME280;58632;51.718;19.446;2023-07-16T10:13:08;99384.27;;;34.78;32.25
70971;BME280;58632;51.718;19.446;2023-07-16T10:15:34;99381.43;;;34.83;33.00
70971;BME280;58632;51.718;19.446;2023-07-16T10:17:59;99378.40;;;34.94;31.92
70971;BME280;58632;51.718;19.446;2023-07-16T10:20:36;99379.75;;;34.89;32.36
70971;BME280;58632;51.718;19.446;2023-07-16T10:23:15;99380.97;;;34.92;32.41
70971;BME280;58632;51.718;19.446;2023-07-16T10:26:00;99378.59;;;34.97;31.53
70971;BME280;58632;51.718;19.446;2023-07-16T10:28:26;99377.59;;;34.91;31.58
70971;BME280;58632;51.718;19.446;2023-07-16T10:30:52;99369.73;;;34.96;31.86
70971;BME280;58632;51.718;19.446;2023-07-16T10:33:17;99370.55;;;35.03;31.42
70971;BME280;58632;51.718;19.446;2023-07-16T10:35:44;99372.73;;;35.13;32.01
70971;BME280;58632;51.718;19.446;2023-07-16T10:38:10;99375.16;;;35.05;31.76
70971;BME280;58632;51.718;19.446;2023-07-16T10:40:45;99382.90;;;34.99;31.59
70971;BME280;58632;51.718;19.446;2023-07-16T10:43:11;99378.68;;;34.92;31.88
70971;BME280;58632;51.718;19.446;2023-07-16T10:45:37;99381.02;;;35.02;32.62
70971;BME280;58632;51.718;19.446;2023-07-16T10:48:03;99378.59;;;35.21;32.62
70971;BME280;58632;51.718;19.446;2023-07-16T10:50:32;99374.84;;;35.39;33.09
70971;BME280;58632;51.718;19.446;2023-07-16T10:52:58;99371.30;;;35.65;32.98
70971;BME280;58632;51.718;19.446;2023-07-16T10:55:26;99373.86;;;35.87;32.02
70971;BME280;58632;51.718;19.446;2023-07-16T10:57:52;99371.89;;;35.95;32.20
70971;BME280;58632;51.718;19.446;2023-07-16T11:00:21;99376.06;;;35.93;31.43
70971;BME280;58632;51.718;19.446;2023-07-16T11:02:50;99373.77;;;35.89;30.76
70971;BME280;58632;51.718;19.446;2023-07-16T11:05:17;99377.80;;;36.03;31.54
70971;BME280;58632;51.718;19.446;2023-07-16T11:07:48;99380.16;;;36.01;31.24
70971;BME280;58632;51.718;19.446;2023-07-16T11:10:18;99387.76;;;35.83;31.41
70971;BME280;58632;51.718;19.446;2023-07-16T11:12:55;99385.56;;;35.80;31.61
70971;BME280;58632;51.718;19.446;2023-07-16T11:15:32;99383.70;;;35.80;31.60
70971;BME280;58632;51.718;19.446;2023-07-16T11:17:58;99381.38;;;35.82;32.24
70971;BME280;58632;51.718;19.446;2023-07-16T11:20:25;99381.58;;;35.74;32.17
70971;BME280;58632;51.718;19.446;2023-07-16T11:22:51;99384.18;;;35.64;30.85
70971;BME280;58632;51.718;19.446;2023-07-16T11:25:16;99382.09;;;35.61;31.55
70971;BME280;58632;51.718;19.446;2023-07-16T11:27:43;99374.11;;;35.65;32.99
70971;BME280;58632;51.718;19.446;2023-07-16T11:30:09;99380.27;;;35.63;32.66
70971;BME280;58632;51.718;19.446;2023-07-16T11:32:57;99388.31;;;35.68;33.01
70971;BME280;58632;51.718;19.446;2023-07-16T11:35:23;99384.08;;;35.82;33.73
70971;BME280;58632;51.718;19.446;2023-07-16T11:37:50;99378.05;;;35.87;33.00
70971;BME280;58632;51.718;19.446;2023-07-16T11:40:39;99378.61;;;35.93;33.03
70971;BME280;58632;51.718;19.446;2023-07-16T11:43:11;99379.55;;;36.14;32.75
70971;BME280;58632;51.718;19.446;2023-07-16T11:45:37;99380.18;;;36.33;32.01
70971;BME280;58632;51.718;19.446;2023-07-16T11:48:04;99374.05;;;36.42;31.16
70971;BME280;58632;51.718;19.446;2023-07-16T11:50:30;99373.31;;;36.49;31.10
70971;BME280;58632;51.718;19.446;2023-07-16T11:53:00;99378.86;;;36.59;31.47
70971;BME280;58632;51.718;19.446;2023-07-16T11:55:26;99377.58;;;36.74;31.24
70971;BME280;58632;51.718;19.446;2023-07-16T11:57:52;99375.03;;;36.74;30.99
70971;BME280;58632;51.718;19.446;2023-07-16T12:00:18;99368.64;;;36.83;30.40
70971;BME280;58632;51.718;19.446;2023-07-16T12:02:44;99366.25;;;36.83;31.03
70971;BME280;58632;51.718;19.446;2023-07-16T12:05:18;99370.11;;;36.94;31.03
70971;BME280;58632;51.718;19.446;2023-07-16T12:07:43;99366.14;;;36.99;30.59
70971;BME280;58632;51.718;19.446;2023-07-16T12:10:10;99363.89;;;37.08;30.65
70971;BME280;58632;51.718;19.446;2023-07-16T12:12:38;99362.27;;;37.24;31.07
70971;BME280;58632;51.718;19.446;2023-07-16T12:15:08;99356.67;;;37.44;30.33
70971;BME280;58632;51.718;19.446;2023-07-16T12:17:40;99354.45;;;37.52;29.18
70971;BME280;58632;51.718;19.446;2023-07-16T12:20:08;99352.20;;;37.44;28.97
70971;BME280;58632;51.718;19.446;2023-07-16T12:22:35;99351.38;;;37.30;29.53
70971;BME280;58632;51.718;19.446;2023-07-16T12:25:02;99350.78;;;37.17;30.14
70971;BME280;58632;51.718;19.446;2023-07-16T12:27:29;99352.80;;;36.99;30.40
70971;BME280;58632;51.718;19.446;2023-07-16T12:29:54;99357.33;;;36.83;29.92
70971;BME280;58632;51.718;19.446;2023-07-16T12:32:20;99356.16;;;36.51;30.10
70971;BME280;58632;51.718;19.446;2023-07-16T12:34:47;99360.34;;;36.17;30.51
70971;BME280;58632;51.718;19.446;2023-07-16T12:37:15;99363.17;;;35.91;30.62
70971;BME280;58632;51.718;19.446;2023-07-16T12:39:42;99366.61;;;35.74;31.30
70971;BME280;58632;51.718;19.446;2023-07-16T12:42:09;99364.34;;;35.52;31.96
70971;BME280;58632;51.718;19.446;2023-07-16T12:44:35;99362.85;;;35.29;31.23
70971;BME280;58632;51.718;19.446;2023-07-16T12:47:01;99360.64;;;35.06;32.02
70971;BME280;58632;51.718;19.446;2023-07-16T12:49:30;99360.21;;;34.86;31.96